sensor_id;sensor_type;location;lat;lon;timestamp;P1;durP1;ratioP1;P2;durP2;ratioP2
10725;SDS011;5414;59.782;16.378;2023-05-10T00:00:33;4.80;;;4.27;;
10725;SDS011;5414;59.782;16.378;2023-05-10T00:02:59;3.90;;;3.60;;
10725;SDS011;5414;59.782;16.378;2023-05-10T00:05:25;5.90;;;5.03;;
10725;SDS011;5414;59.782;16.378;2023-05-10T00:07:51;15.77;;;11.37;;
10725;SDS011;5414;59.782;16.378;2023-05-10T00:10:17;12.00;;;7.87;;
10725;SDS011;5414;59.782;16.378;2023-05-10T00:12:43;7.50;;;6.73;;
10725;SDS011;5414;59.782;16.378;2023-05-10T00:15:09;6.53;;;4.90;;
10725;SDS011;5414;59.782;16.378;2023-05-10T00:17:35;7.77;;;5.00;;
10725;SDS011;5414;59.782;16.378;2023-05-10T00:20:02;4.37;;;3.97;;
10725;SDS011;5414;59.782;16.378;2023-05-10T00:22:29;4.30;;;3.90;;
10725;SDS011;5414;59.782;16.378;2023-05-10T00:24:56;4.40;;;4.00;;
10725;SDS011;5414;59.782;16.378;2023-05-10T00:27:22;4.80;;;3.90;;
10725;SDS011;5414;59.782;16.378;2023-05-10T00:29:48;6.50;;;4.77;;
10725;SDS011;5414;59.782;16.378;2023-05-10T00:32:15;6.77;;;5.53;;
10725;SDS011;5414;59.782;16.378;2023-05-10T00:34:41;30.23;;;19.43;;
10725;SDS011;5414;59.782;16.378;2023-05-10T00:37:07;39.83;;;25.83;;
10725;SDS011;5414;59.782;16.378;2023-05-10T00:39:33;33.77;;;22.33;;
10725;SDS011;5414;59.782;16.378;2023-05-10T00:41:59;29.27;;;18.47;;
10725;SDS011;5414;59.782;16.378;2023-05-10T00:44:25;23.57;;;14.87;;
10725;SDS011;5414;59.782;16.378;2023-05-10T00:46:53;20.00;;;15.63;;
10725;SDS011;5414;59.782;16.378;2023-05-10T00:49:19;20.87;;;14.23;;
10725;SDS011;5414;59.782;16.378;2023-05-10T00:51:46;16.73;;;11.87;;
10725;SDS011;5414;59.782;16.378;2023-05-10T00:54:12;15.40;;;11.37;;
10725;SDS011;5414;59.782;16.378;2023-05-10T00:56:40;9.63;;;8.13;;
10725;SDS011;5414;59.782;16.378;2023-05-10T00:59:07;6.47;;;5.87;;
10725;SDS011;5414;59.782;16.378;2023-05-10T01:01:34;6.10;;;5.13;;
10725;SDS011;5414;59.782;16.378;2023-05-10T01:04:01;6.20;;;4.97;;
10725;SDS011;5414;59.782;16.378;2023-05-10T01:06:28;5.77;;;4.70;;
10725;SDS011;5414;59.782;16.378;2023-05-10T01:08:54;5.73;;;5.23;;
10725;SDS011;5414;59.782;16.378;2023-05-10T01:11:20;8.00;;;5.23;;
10725;SDS011;5414;59.782;16.378;2023-05-10T01:13:47;7.13;;;5.60;;
10725;SDS011;5414;59.782;16.378;2023-05-10T01:16:16;4.50;;;4.10;;
10725;SDS011;5414;59.782;16.378;2023-05-10T01:18:42;4.60;;;4.20;;
10725;SDS011;5414;59.782;16.378;2023-05-10T01:26:25;4.73;;;4.33;;
10725;SDS011;5414;59.782;16.378;2023-05-10T01:31:22;5.63;;;4.80;;
10725;SDS011;5414;59.782;16.378;2023-05-10T01:33:52;6.93;;;5.23;;
10725;SDS011;5414;59.782;16.378;2023-05-10T01:36:28;6.23;;;4.80;;
10725;SDS011;5414;59.782;16.378;2023-05-10T01:39:01;5.90;;;4.77;;
10725;SDS011;5414;59.782;16.378;2023-05-10T01:41:36;6.17;;;4.97;;
10725;SDS011;5414;59.782;16.378;2023-05-10T01:44:20;6.17;;;5.03;;
10725;SDS011;5414;59.782;16.378;2023-05-10T01:46:53;9.80;;;8.33;;
10725;SDS011;5414;59.782;16.378;2023-05-10T01:49:26;12.53;;;9.13;;
10725;SDS011;5414;59.782;16.378;2023-05-10T01:51:59;10.63;;;8.17;;
10725;SDS011;5414;59.782;16.378;2023-05-10T01:54:26;7.63;;;6.20;;
10725;SDS011;5414;59.782;16.378;2023-05-10T01:56:57;6.73;;;5.90;;
10725;SDS011;5414;59.782;16.378;2023-05-10T01:59:27;7.67;;;5.40;;
10725;SDS011;5414;59.782;16.378;2023-05-10T02:01:56;7.07;;;5.40;;
10725;SDS011;5414;59.782;16.378;2023-05-10T02:04:23;5.47;;;4.97;;
10725;SDS011;5414;59.782;16.378;2023-05-10T02:06:51;5.33;;;4.57;;
10725;SDS011;5414;59.782;16.378;2023-05-10T02:09:18;5.37;;;4.87;;
10725;SDS011;5414;59.782;16.378;2023-05-10T02:11:45;5.30;;;4.80;;
10725;SDS011;5414;59.782;16.378;2023-05-10T02:14:13;5.33;;;4.70;;
10725;SDS011;5414;59.782;16.378;2023-05-10T02:16:40;6.17;;;5.17;;
10725;SDS011;5414;59.782;16.378;2023-05-10T02:19:07;10.20;;;8.47;;
10725;SDS011;5414;59.782;16.378;2023-05-10T02:21:33;17.97;;;12.33;;
10725;SDS011;5414;59.782;16.378;2023-05-10T02:24:00;16.30;;;11.20;;
10725;SDS011;5414;59.782;16.378;2023-05-10T02:26:27;9.03;;;8.03;;
10725;SDS011;5414;59.782;16.378;2023-05-10T02:28:53;7.00;;;6.30;;
10725;SDS011;5414;59.782;16.378;2023-05-10T02:31:20;6.40;;;5.80;;
10725;SDS011;5414;59.782;16.378;2023-05-10T02:33:46;5.37;;;4.87;;
10725;SDS011;5414;59.782;16.378;2023-05-10T02:36:13;5.30;;;4.80;;
10725;SDS011;5414;59.782;16.378;2023-05-10T02:38:39;5.37;;;4.87;;
10725;SDS011;5414;59.782;16.378;2023-05-10T02:41:06;5.87;;;5.17;;
10725;SDS011;5414;59.782;16.378;2023-05-10T02:43:33;5.27;;;4.77;;
10725;SDS011;5414;59.782;16.378;2023-05-10T02:46:01;6.03;;;5.17;;
10725;SDS011;5414;59.782;16.378;2023-05-10T02:48:27;5.00;;;4.50;;
10725;SDS011;5414;59.782;16.378;2023-05-10T02:50:55;5.63;;;5.03;;
10725;SDS011;5414;59.782;16.378;2023-05-10T02:53:28;5.27;;;4.57;;
10725;SDS011;5414;59.782;16.378;2023-05-10T02:55:57;6.10;;;5.50;;
10725;SDS011;5414;59.782;16.378;2023-05-10T02:58:23;11.13;;;8.30;;
10725;SDS011;5414;59.782;16.378;2023-05-10T03:00:50;9.87;;;7.93;;
10725;SDS011;5414;59.782;16.378;2023-05-10T03:03:16;8.13;;;6.23;;
10725;SDS011;5414;59.782;16.378;2023-05-10T03:05:42;5.43;;;4.93;;
10725;SDS011;5414;59.782;16.378;2023-05-10T03:08:08;5.10;;;4.70;;
10725;SDS011;5414;59.782;16.378;2023-05-10T03:10:47;6.33;;;5.07;;
10725;SDS011;5414;59.782;16.378;2023-05-10T03:19:17;8.37;;;6.70;;
10725;SDS011;5414;59.782;16.378;2023-05-10T03:21:24;10.77;;;8.80;;
10725;SDS011;5414;59.782;16.378;2023-05-10T03:23:54;18.87;;;14.57;;
10725;SDS011;5414;59.782;16.378;2023-05-10T03:26:24;12.93;;;10.57;;
10725;SDS011;5414;59.782;16.378;2023-05-10T03:28:50;8.50;;;6.90;;
10725;SDS011;5414;59.782;16.378;2023-05-10T03:31:18;8.10;;;5.60;;
10725;SDS011;5414;59.782;16.378;2023-05-10T03:33:47;6.50;;;5.50;;
10725;SDS011;5414;59.782;16.378;2023-05-10T03:36:13;6.93;;;5.50;;
10725;SDS011;5414;59.782;16.378;2023-05-10T03:38:40;6.23;;;5.50;;
10725;SDS011;5414;59.782;16.378;2023-05-10T03:41:06;5.50;;;5.00;;
10725;SDS011;5414;59.782;16.378;2023-05-10T03:43:32;5.00;;;4.50;;
10725;SDS011;5414;59.782;16.378;2023-05-10T03:45:58;6.07;;;4.70;;
10725;SDS011;5414;59.782;16.378;2023-05-10T03:48:24;6.70;;;5.90;;
10725;SDS011;5414;59.782;16.378;2023-05-10T03:50:50;8.10;;;6.00;;
10725;SDS011;5414;59.782;16.378;2023-05-10T03:53:16;6.70;;;6.00;;
10725;SDS011;5414;59.782;16.378;2023-05-10T03:55:42;7.13;;;6.43;;
10725;SDS011;5414;59.782;16.378;2023-05-10T03:58:10;7.87;;;7.00;;
10725;SDS011;5414;59.782;16.378;2023-05-10T04:00:36;8.23;;;6.93;;
10725;SDS011;5414;59.782;16.378;2023-05-10T04:03:08;7.70;;;6.90;;
10725;SDS011;5414;59.782;16.378;2023-05-10T04:05:34;6.63;;;5.63;;
10725;SDS011;5414;59.782;16.378;2023-05-10T04:08:00;6.17;;;5.40;;
10725;SDS011;5414;59.782;16.378;2023-05-10T04:10:26;5.87;;;5.33;;
10725;SDS011;5414;59.782;16.378;2023-05-10T04:12:53;5.80;;;5.30;;
10725;SDS011;5414;59.782;16.378;2023-05-10T04:15:19;7.20;;;5.53;;
10725;SDS011;5414;59.782;16.378;2023-05-10T04:17:45;6.30;;;5.70;;
10725;SDS011;5414;59.782;16.378;2023-05-10T04:20:11;6.10;;;5.33;;
10725;SDS011;5414;59.782;16.378;2023-05-10T04:22:39;6.00;;;5.50;;
10725;SDS011;5414;59.782;16.378;2023-05-10T04:25:05;6.50;;;5.73;;
10725;SDS011;5414;59.782;16.378;2023-05-10T04:27:32;6.77;;;5.77;;
10725;SDS011;5414;59.782;16.378;2023-05-10T04:29:58;6.00;;;5.47;;
10725;SDS011;5414;59.782;16.378;2023-05-10T04:32:24;5.80;;;5.20;;
10725;SDS011;5414;59.782;16.378;2023-05-10T04:34:50;6.23;;;4.93;;
10725;SDS011;5414;59.782;16.378;2023-05-10T04:37:16;6.00;;;5.40;;
10725;SDS011;5414;59.782;16.378;2023-05-10T04:39:42;6.00;;;5.40;;
10725;SDS011;5414;59.782;16.378;2023-05-10T04:42:08;6.23;;;5.60;;
10725;SDS011;5414;59.782;16.378;2023-05-10T04:44:35;6.53;;;5.30;;
10725;SDS011;5414;59.782;16.378;2023-05-10T04:47:01;5.90;;;5.30;;
10725;SDS011;5414;59.782;16.378;2023-05-10T04:49:28;5.73;;;5.23;;
10725;SDS011;5414;59.782;16.378;2023-05-10T04:51:54;6.03;;;5.40;;
10725;SDS011;5414;59.782;16.378;2023-05-10T04:54:20;5.83;;;5.20;;
10725;SDS011;5414;59.782;16.378;2023-05-10T04:56:46;5.40;;;4.97;;
10725;SDS011;5414;59.782;16.378;2023-05-10T04:59:13;5.97;;;5.37;;
10725;SDS011;5414;59.782;16.378;2023-05-10T05:01:39;5.87;;;5.30;;
10725;SDS011;5414;59.782;16.378;2023-05-10T05:04:05;6.83;;;5.37;;
10725;SDS011;5414;59.782;16.378;2023-05-10T05:06:32;8.90;;;5.37;;
10725;SDS011;5414;59.782;16.378;2023-05-10T05:08:58;11.13;;;5.60;;
10725;SDS011;5414;59.782;16.378;2023-05-10T05:11:24;8.73;;;5.20;;
10725;SDS011;5414;59.782;16.378;2023-05-10T05:13:50;6.50;;;5.30;;
10725;SDS011;5414;59.782;16.378;2023-05-10T05:16:16;7.20;;;5.07;;
10725;SDS011;5414;59.782;16.378;2023-05-10T05:18:42;6.00;;;5.03;;
10725;SDS011;5414;59.782;16.378;2023-05-10T05:21:18;8.53;;;5.57;;
10725;SDS011;5414;59.782;16.378;2023-05-10T05:23:44;5.53;;;5.03;;
10725;SDS011;5414;59.782;16.378;2023-05-10T05:26:11;5.57;;;5.00;;
10725;SDS011;5414;59.782;16.378;2023-05-10T05:28:37;7.97;;;5.20;;
10725;SDS011;5414;59.782;16.378;2023-05-10T05:31:03;7.50;;;5.20;;
10725;SDS011;5414;59.782;16.378;2023-05-10T05:33:30;5.80;;;5.20;;
10725;SDS011;5414;59.782;16.378;2023-05-10T05:35:56;5.83;;;5.23;;
10725;SDS011;5414;59.782;16.378;2023-05-10T05:38:22;5.77;;;5.27;;
10725;SDS011;5414;59.782;16.378;2023-05-10T05:40:48;5.33;;;4.83;;
10725;SDS011;5414;59.782;16.378;2023-05-10T05:43:14;5.10;;;4.60;;
10725;SDS011;5414;59.782;16.378;2023-05-10T05:45:40;5.60;;;5.10;;
10725;SDS011;5414;59.782;16.378;2023-05-10T05:48:06;5.67;;;4.70;;
10725;SDS011;5414;59.782;16.378;2023-05-10T05:50:32;5.23;;;4.73;;
10725;SDS011;5414;59.782;16.378;2023-05-10T05:52:58;5.30;;;4.80;;
10725;SDS011;5414;59.782;16.378;2023-05-10T05:55:24;6.27;;;5.20;;
10725;SDS011;5414;59.782;16.378;2023-05-10T05:57:51;5.50;;;4.70;;
10725;SDS011;5414;59.782;16.378;2023-05-10T06:00:17;6.67;;;5.20;;
10725;SDS011;5414;59.782;16.378;2023-05-10T06:02:43;5.00;;;4.60;;
10725;SDS011;5414;59.782;16.378;2023-05-10T06:05:09;5.10;;;4.60;;
10725;SDS011;5414;59.782;16.378;2023-05-10T06:07:35;8.20;;;5.00;;
10725;SDS011;5414;59.782;16.378;2023-05-10T06:10:01;4.97;;;4.57;;
10725;SDS011;5414;59.782;16.378;2023-05-10T06:12:28;7.43;;;4.83;;
10725;SDS011;5414;59.782;16.378;2023-05-10T06:14:54;5.23;;;4.40;;
10725;SDS011;5414;59.782;16.378;2023-05-10T06:17:20;4.97;;;4.47;;
10725;SDS011;5414;59.782;16.378;2023-05-10T06:19:46;6.37;;;4.57;;
10725;SDS011;5414;59.782;16.378;2023-05-10T06:22:12;5.53;;;4.27;;
10725;SDS011;5414;59.782;16.378;2023-05-10T06:24:38;7.53;;;4.63;;
10725;SDS011;5414;59.782;16.378;2023-05-10T06:27:05;6.07;;;4.30;;
10725;SDS011;5414;59.782;16.378;2023-05-10T06:29:31;4.87;;;4.20;;
10725;SDS011;5414;59.782;16.378;2023-05-10T06:31:57;5.87;;;4.00;;
10725;SDS011;5414;59.782;16.378;2023-05-10T06:34:24;5.47;;;4.20;;
10725;SDS011;5414;59.782;16.378;2023-05-10T06:36:50;5.83;;;4.23;;
10725;SDS011;5414;59.782;16.378;2023-05-10T06:39:16;6.77;;;4.30;;
10725;SDS011;5414;59.782;16.378;2023-05-10T06:41:42;4.77;;;4.27;;
10725;SDS011;5414;59.782;16.378;2023-05-10T06:44:08;4.80;;;4.40;;
10725;SDS011;5414;59.782;16.378;2023-05-10T06:46:34;4.60;;;4.03;;
10725;SDS011;5414;59.782;16.378;2023-05-10T06:49:01;4.90;;;4.40;;
10725;SDS011;5414;59.782;16.378;2023-05-10T06:51:27;5.10;;;4.30;;
10725;SDS011;5414;59.782;16.378;2023-05-10T06:53:53;4.57;;;4.17;;
10725;SDS011;5414;59.782;16.378;2023-05-10T06:56:19;4.60;;;4.10;;
10725;SDS011;5414;59.782;16.378;2023-05-10T06:58:48;5.87;;;4.40;;
10725;SDS011;5414;59.782;16.378;2023-05-10T07:01:14;5.50;;;4.10;;
10725;SDS011;5414;59.782;16.378;2023-05-10T07:03:40;4.33;;;3.83;;
10725;SDS011;5414;59.782;16.378;2023-05-10T07:06:06;7.67;;;4.20;;
10725;SDS011;5414;59.782;16.378;2023-05-10T07:08:33;5.90;;;4.40;;
10725;SDS011;5414;59.782;16.378;2023-05-10T07:11:00;5.27;;;4.20;;
10725;SDS011;5414;59.782;16.378;2023-05-10T07:13:26;7.33;;;4.23;;
10725;SDS011;5414;59.782;16.378;2023-05-10T07:15:52;5.90;;;3.97;;
10725;SDS011;5414;59.782;16.378;2023-05-10T07:18:20;4.77;;;4.17;;
10725;SDS011;5414;59.782;16.378;2023-05-10T07:20:46;5.27;;;4.43;;
10725;SDS011;5414;59.782;16.378;2023-05-10T07:23:12;5.23;;;4.23;;
10725;SDS011;5414;59.782;16.378;2023-05-10T07:25:39;5.57;;;4.43;;
10725;SDS011;5414;59.782;16.378;2023-05-10T07:28:05;6.27;;;4.77;;
10725;SDS011;5414;59.782;16.378;2023-05-10T07:30:31;6.00;;;4.20;;
10725;SDS011;5414;59.782;16.378;2023-05-10T07:32:57;6.03;;;4.30;;
10725;SDS011;5414;59.782;16.378;2023-05-10T07:35:24;4.27;;;3.87;;
10725;SDS011;5414;59.782;16.378;2023-05-10T07:37:50;7.10;;;3.90;;
10725;SDS011;5414;59.782;16.378;2023-05-10T07:40:16;4.30;;;3.90;;
10725;SDS011;5414;59.782;16.378;2023-05-10T07:42:42;5.40;;;3.80;;
10725;SDS011;5414;59.782;16.378;2023-05-10T07:45:08;4.60;;;4.20;;
10725;SDS011;5414;59.782;16.378;2023-05-10T07:47:34;12.33;;;4.60;;
10725;SDS011;5414;59.782;16.378;2023-05-10T07:50:00;5.37;;;4.13;;
10725;SDS011;5414;59.782;16.378;2023-05-10T07:52:26;6.37;;;4.50;;
10725;SDS011;5414;59.782;16.378;2023-05-10T07:54:52;6.80;;;4.20;;
10725;SDS011;5414;59.782;16.378;2023-05-10T07:57:19;6.13;;;4.20;;
10725;SDS011;5414;59.782;16.378;2023-05-10T07:59:45;5.27;;;4.17;;
10725;SDS011;5414;59.782;16.378;2023-05-10T08:02:11;7.03;;;4.37;;
10725;SDS011;5414;59.782;16.378;2023-05-10T08:04:37;4.50;;;4.10;;
10725;SDS011;5414;59.782;16.378;2023-05-10T08:07:04;5.23;;;4.33;;
10725;SDS011;5414;59.782;16.378;2023-05-10T08:09:30;8.70;;;4.80;;
10725;SDS011;5414;59.782;16.378;2023-05-10T08:11:56;5.97;;;4.30;;
10725;SDS011;5414;59.782;16.378;2023-05-10T08:14:24;5.10;;;4.00;;
10725;SDS011;5414;59.782;16.378;2023-05-10T08:16:50;7.37;;;4.33;;
10725;SDS011;5414;59.782;16.378;2023-05-10T08:19:17;8.20;;;4.63;;
10725;SDS011;5414;59.782;16.378;2023-05-10T08:21:45;5.73;;;4.40;;
10725;SDS011;5414;59.782;16.378;2023-05-10T08:24:11;6.50;;;4.03;;
10725;SDS011;5414;59.782;16.378;2023-05-10T08:26:37;7.03;;;4.40;;
10725;SDS011;5414;59.782;16.378;2023-05-10T08:29:03;5.77;;;4.27;;
10725;SDS011;5414;59.782;16.378;2023-05-10T08:31:29;8.40;;;4.20;;
10725;SDS011;5414;59.782;16.378;2023-05-10T08:33:55;6.27;;;4.63;;
10725;SDS011;5414;59.782;16.378;2023-05-10T08:36:21;6.07;;;4.37;;
10725;SDS011;5414;59.782;16.378;2023-05-10T08:38:52;5.33;;;4.30;;
10725;SDS011;5414;59.782;16.378;2023-05-10T08:41:22;6.80;;;4.57;;
10725;SDS011;5414;59.782;16.378;2023-05-10T08:43:53;6.40;;;4.70;;
10725;SDS011;5414;59.782;16.378;2023-05-10T08:46:20;4.57;;;4.17;;
10725;SDS011;5414;59.782;16.378;2023-05-10T08:48:47;6.73;;;4.43;;
10725;SDS011;5414;59.782;16.378;2023-05-10T08:51:14;7.50;;;4.20;;
10725;SDS011;5414;59.782;16.378;2023-05-10T08:53:41;6.33;;;4.30;;
10725;SDS011;5414;59.782;16.378;2023-05-10T08:56:07;6.30;;;4.70;;
10725;SDS011;5414;59.782;16.378;2023-05-10T08:58:34;5.03;;;4.43;;
10725;SDS011;5414;59.782;16.378;2023-05-10T09:01:01;5.00;;;4.27;;
10725;SDS011;5414;59.782;16.378;2023-05-10T09:03:28;5.37;;;4.17;;
10725;SDS011;5414;59.782;16.378;2023-05-10T09:05:54;5.83;;;4.50;;
10725;SDS011;5414;59.782;16.378;2023-05-10T09:08:23;5.13;;;4.40;;
10725;SDS011;5414;59.782;16.378;2023-05-10T09:10:53;6.77;;;4.57;;
10725;SDS011;5414;59.782;16.378;2023-05-10T09:13:20;5.53;;;4.63;;
10725;SDS011;5414;59.782;16.378;2023-05-10T09:15:46;4.93;;;4.43;;
10725;SDS011;5414;59.782;16.378;2023-05-10T09:18:12;4.40;;;3.97;;
10725;SDS011;5414;59.782;16.378;2023-05-10T09:20:39;8.03;;;4.43;;
10725;SDS011;5414;59.782;16.378;2023-05-10T09:23:05;6.60;;;4.20;;
10725;SDS011;5414;59.782;16.378;2023-05-10T09:25:31;6.20;;;4.20;;
10725;SDS011;5414;59.782;16.378;2023-05-10T09:28:00;6.23;;;5.13;;
10725;SDS011;5414;59.782;16.378;2023-05-10T09:30:30;6.27;;;4.37;;
10725;SDS011;5414;59.782;16.378;2023-05-10T09:32:56;4.87;;;4.00;;
10725;SDS011;5414;59.782;16.378;2023-05-10T09:35:23;5.53;;;4.27;;
10725;SDS011;5414;59.782;16.378;2023-05-10T09:37:50;6.03;;;4.43;;
10725;SDS011;5414;59.782;16.378;2023-05-10T09:45:20;4.10;;;3.50;;
10725;SDS011;5414;59.782;16.378;2023-05-10T09:47:47;4.70;;;4.20;;
10725;SDS011;5414;59.782;16.378;2023-05-10T09:50:13;5.67;;;4.00;;
10725;SDS011;5414;59.782;16.378;2023-05-10T09:52:58;4.90;;;3.50;;
10725;SDS011;5414;59.782;16.378;2023-05-10T09:55:38;5.40;;;4.07;;
10725;SDS011;5414;59.782;16.378;2023-05-10T09:58:05;5.20;;;3.87;;
10725;SDS011;5414;59.782;16.378;2023-05-10T10:00:38;4.80;;;3.83;;
10725;SDS011;5414;59.782;16.378;2023-05-10T10:03:05;4.17;;;3.77;;
10725;SDS011;5414;59.782;16.378;2023-05-10T10:05:32;7.40;;;3.67;;
10725;SDS011;5414;59.782;16.378;2023-05-10T10:07:59;3.87;;;3.47;;
10725;SDS011;5414;59.782;16.378;2023-05-10T10:10:25;4.87;;;3.63;;
10725;SDS011;5414;59.782;16.378;2023-05-10T10:12:52;5.70;;;3.60;;
10725;SDS011;5414;59.782;16.378;2023-05-10T10:15:18;4.40;;;3.53;;
10725;SDS011;5414;59.782;16.378;2023-05-10T10:17:45;5.43;;;4.03;;
10725;SDS011;5414;59.782;16.378;2023-05-10T10:20:12;3.83;;;3.37;;
10725;SDS011;5414;59.782;16.378;2023-05-10T10:22:38;4.13;;;3.40;;
10725;SDS011;5414;59.782;16.378;2023-05-10T10:25:04;4.20;;;3.57;;
10725;SDS011;5414;59.782;16.378;2023-05-10T10:28:15;3.90;;;3.50;;
10725;SDS011;5414;59.782;16.378;2023-05-10T10:33:18;5.73;;;3.40;;
10725;SDS011;5414;59.782;16.378;2023-05-10T10:35:45;5.70;;;3.33;;
10725;SDS011;5414;59.782;16.378;2023-05-10T10:38:12;3.60;;;3.30;;
10725;SDS011;5414;59.782;16.378;2023-05-10T10:40:38;4.67;;;3.60;;
10725;SDS011;5414;59.782;16.378;2023-05-10T10:43:24;5.50;;;3.20;;
10725;SDS011;5414;59.782;16.378;2023-05-10T10:48:36;3.67;;;3.30;;
10725;SDS011;5414;59.782;16.378;2023-05-10T10:51:02;5.53;;;3.60;;
10725;SDS011;5414;59.782;16.378;2023-05-10T10:53:28;5.43;;;3.33;;
10725;SDS011;5414;59.782;16.378;2023-05-10T10:56:07;4.60;;;3.20;;
10725;SDS011;5414;59.782;16.378;2023-05-10T10:58:34;4.80;;;3.30;;
10725;SDS011;5414;59.782;16.378;2023-05-10T11:03:37;5.40;;;3.30;;
10725;SDS011;5414;59.782;16.378;2023-05-10T11:06:03;9.43;;;3.47;;
10725;SDS011;5414;59.782;16.378;2023-05-10T11:08:29;6.50;;;3.67;;
10725;SDS011;5414;59.782;16.378;2023-05-10T11:13:32;11.17;;;3.97;;
10725;SDS011;5414;59.782;16.378;2023-05-10T11:16:09;8.97;;;3.80;;
10725;SDS011;5414;59.782;16.378;2023-05-10T11:18:36;10.67;;;4.07;;
10725;SDS011;5414;59.782;16.378;2023-05-10T11:21:02;7.30;;;3.80;;
10725;SDS011;5414;59.782;16.378;2023-05-10T11:23:30;6.50;;;3.60;;
10725;SDS011;5414;59.782;16.378;2023-05-10T11:25:56;4.83;;;3.80;;
10725;SDS011;5414;59.782;16.378;2023-05-10T11:28:24;5.90;;;3.43;;
10725;SDS011;5414;59.782;16.378;2023-05-10T11:30:51;4.77;;;3.43;;
10725;SDS011;5414;59.782;16.378;2023-05-10T11:33:18;4.20;;;3.13;;
10725;SDS011;5414;59.782;16.378;2023-05-10T11:35:44;3.33;;;3.03;;
10725;SDS011;5414;59.782;16.378;2023-05-10T11:38:11;6.27;;;3.73;;
10725;SDS011;5414;59.782;16.378;2023-05-10T11:40:37;3.87;;;3.30;;
10725;SDS011;5414;59.782;16.378;2023-05-10T11:43:04;6.27;;;3.60;;
10725;SDS011;5414;59.782;16.378;2023-05-10T11:45:33;3.57;;;3.20;;
10725;SDS011;5414;59.782;16.378;2023-05-10T11:47:59;4.10;;;2.90;;
10725;SDS011;5414;59.782;16.378;2023-05-10T11:50:25;3.43;;;3.13;;
10725;SDS011;5414;59.782;16.378;2023-05-10T11:52:55;3.97;;;3.33;;
10725;SDS011;5414;59.782;16.378;2023-05-10T11:55:22;3.77;;;3.17;;
10725;SDS011;5414;59.782;16.378;2023-05-10T11:57:52;4.33;;;3.13;;
10725;SDS011;5414;59.782;16.378;2023-05-10T12:00:19;5.90;;;3.10;;
10725;SDS011;5414;59.782;16.378;2023-05-10T12:02:45;4.80;;;2.83;;
10725;SDS011;5414;59.782;16.378;2023-05-10T12:05:11;3.73;;;3.40;;
10725;SDS011;5414;59.782;16.378;2023-05-10T12:07:37;4.23;;;3.30;;
10725;SDS011;5414;59.782;16.378;2023-05-10T12:10:07;4.17;;;2.90;;
10725;SDS011;5414;59.782;16.378;2023-05-10T12:15:27;4.30;;;3.20;;
10725;SDS011;5414;59.782;16.378;2023-05-10T12:17:53;3.87;;;3.33;;
10725;SDS011;5414;59.782;16.378;2023-05-10T12:20:20;4.40;;;3.20;;
10725;SDS011;5414;59.782;16.378;2023-05-10T12:22:48;4.63;;;3.43;;
10725;SDS011;5414;59.782;16.378;2023-05-10T12:25:14;4.13;;;2.87;;
10725;SDS011;5414;59.782;16.378;2023-05-10T12:27:46;5.20;;;3.40;;
10725;SDS011;5414;59.782;16.378;2023-05-10T12:30:18;5.77;;;3.47;;
10725;SDS011;5414;59.782;16.378;2023-05-10T12:32:44;3.43;;;3.10;;
10725;SDS011;5414;59.782;16.378;2023-05-10T12:35:10;3.70;;;3.37;;
10725;SDS011;5414;59.782;16.378;2023-05-10T12:37:36;5.07;;;3.07;;
10725;SDS011;5414;59.782;16.378;2023-05-10T12:40:07;3.17;;;2.80;;
10725;SDS011;5414;59.782;16.378;2023-05-10T12:42:34;3.30;;;3.00;;
10725;SDS011;5414;59.782;16.378;2023-05-10T12:45:02;7.07;;;3.30;;
10725;SDS011;5414;59.782;16.378;2023-05-10T12:47:29;6.30;;;2.97;;
10725;SDS011;5414;59.782;16.378;2023-05-10T12:49:55;3.30;;;2.77;;
10725;SDS011;5414;59.782;16.378;2023-05-10T12:52:21;5.30;;;2.93;;
10725;SDS011;5414;59.782;16.378;2023-05-10T12:54:47;7.83;;;3.43;;
10725;SDS011;5414;59.782;16.378;2023-05-10T12:57:14;3.80;;;3.17;;
10725;SDS011;5414;59.782;16.378;2023-05-10T12:59:40;10.20;;;3.30;;
10725;SDS011;5414;59.782;16.378;2023-05-10T13:02:06;3.83;;;3.30;;
10725;SDS011;5414;59.782;16.378;2023-05-10T13:04:32;3.93;;;3.13;;
10725;SDS011;5414;59.782;16.378;2023-05-10T13:06:58;6.27;;;3.30;;
10725;SDS011;5414;59.782;16.378;2023-05-10T13:09:25;5.00;;;3.20;;
10725;SDS011;5414;59.782;16.378;2023-05-10T13:11:51;4.73;;;3.37;;
10725;SDS011;5414;59.782;16.378;2023-05-10T13:14:19;3.93;;;3.10;;
10725;SDS011;5414;59.782;16.378;2023-05-10T13:16:48;7.97;;;3.43;;
10725;SDS011;5414;59.782;16.378;2023-05-10T13:19:14;4.70;;;3.40;;
10725;SDS011;5414;59.782;16.378;2023-05-10T13:21:40;4.33;;;3.23;;
10725;SDS011;5414;59.782;16.378;2023-05-10T13:24:06;5.87;;;3.30;;
10725;SDS011;5414;59.782;16.378;2023-05-10T13:26:32;5.43;;;3.57;;
10725;SDS011;5414;59.782;16.378;2023-05-10T13:28:58;3.77;;;3.00;;
10725;SDS011;5414;59.782;16.378;2023-05-10T13:31:26;4.63;;;3.30;;
10725;SDS011;5414;59.782;16.378;2023-05-10T13:33:52;6.20;;;2.97;;
10725;SDS011;5414;59.782;16.378;2023-05-10T13:36:18;5.73;;;2.87;;
10725;SDS011;5414;59.782;16.378;2023-05-10T13:38:44;6.20;;;3.00;;
10725;SDS011;5414;59.782;16.378;2023-05-10T13:41:10;6.50;;;3.20;;
10725;SDS011;5414;59.782;16.378;2023-05-10T13:43:36;5.90;;;3.03;;
10725;SDS011;5414;59.782;16.378;2023-05-10T13:46:02;3.37;;;3.03;;
10725;SDS011;5414;59.782;16.378;2023-05-10T13:48:29;3.80;;;2.97;;
10725;SDS011;5414;59.782;16.378;2023-05-10T13:50:55;4.23;;;2.90;;
10725;SDS011;5414;59.782;16.378;2023-05-10T13:53:21;5.53;;;2.93;;
10725;SDS011;5414;59.782;16.378;2023-05-10T13:55:48;4.67;;;2.90;;
10725;SDS011;5414;59.782;16.378;2023-05-10T13:58:14;5.57;;;3.10;;
10725;SDS011;5414;59.782;16.378;2023-05-10T14:00:40;4.27;;;3.20;;
10725;SDS011;5414;59.782;16.378;2023-05-10T14:03:06;3.10;;;2.80;;
10725;SDS011;5414;59.782;16.378;2023-05-10T14:05:34;5.13;;;3.07;;
10725;SDS011;5414;59.782;16.378;2023-05-10T14:08:00;6.00;;;2.70;;
10725;SDS011;5414;59.782;16.378;2023-05-10T14:10:26;7.57;;;3.13;;
10725;SDS011;5414;59.782;16.378;2023-05-10T14:12:53;3.23;;;2.77;;
10725;SDS011;5414;59.782;16.378;2023-05-10T14:15:19;5.67;;;2.77;;
10725;SDS011;5414;59.782;16.378;2023-05-10T14:17:45;3.77;;;3.03;;
10725;SDS011;5414;59.782;16.378;2023-05-10T14:20:11;5.23;;;3.00;;
10725;SDS011;5414;59.782;16.378;2023-05-10T14:22:37;4.70;;;3.03;;
10725;SDS011;5414;59.782;16.378;2023-05-10T14:25:03;5.10;;;3.23;;
10725;SDS011;5414;59.782;16.378;2023-05-10T14:27:29;5.03;;;3.27;;
10725;SDS011;5414;59.782;16.378;2023-05-10T14:29:55;4.63;;;2.77;;
10725;SDS011;5414;59.782;16.378;2023-05-10T14:32:22;4.43;;;3.07;;
10725;SDS011;5414;59.782;16.378;2023-05-10T14:34:49;3.57;;;3.20;;
10725;SDS011;5414;59.782;16.378;2023-05-10T14:37:15;6.03;;;3.00;;
10725;SDS011;5414;59.782;16.378;2023-05-10T14:39:41;5.50;;;3.00;;
10725;SDS011;5414;59.782;16.378;2023-05-10T14:42:07;4.23;;;2.97;;
10725;SDS011;5414;59.782;16.378;2023-05-10T14:44:34;4.33;;;2.50;;
10725;SDS011;5414;59.782;16.378;2023-05-10T14:47:00;3.90;;;2.93;;
10725;SDS011;5414;59.782;16.378;2023-05-10T14:49:26;5.43;;;2.87;;
10725;SDS011;5414;59.782;16.378;2023-05-10T14:51:52;6.10;;;2.87;;
10725;SDS011;5414;59.782;16.378;2023-05-10T14:54:18;3.70;;;2.83;;
10725;SDS011;5414;59.782;16.378;2023-05-10T14:56:45;3.20;;;3.00;;
10725;SDS011;5414;59.782;16.378;2023-05-10T14:59:13;4.50;;;2.90;;
10725;SDS011;5414;59.782;16.378;2023-05-10T15:01:39;5.20;;;3.00;;
10725;SDS011;5414;59.782;16.378;2023-05-10T15:04:07;4.43;;;2.90;;
10725;SDS011;5414;59.782;16.378;2023-05-10T15:06:33;2.87;;;2.67;;
10725;SDS011;5414;59.782;16.378;2023-05-10T15:09:00;5.63;;;2.67;;
10725;SDS011;5414;59.782;16.378;2023-05-10T15:11:26;4.70;;;2.80;;
10725;SDS011;5414;59.782;16.378;2023-05-10T15:13:53;4.13;;;2.80;;
10725;SDS011;5414;59.782;16.378;2023-05-10T15:16:19;4.93;;;2.90;;